createdAt,value
2024-02-13T00:00:34.939Z,95826.50
2024-02-13T00:03:01.855Z,95825.09
2024-02-13T00:05:28.873Z,95827.59
2024-02-13T00:07:57.158Z,95820.63
2024-02-13T00:10:25.518Z,95836.69
2024-02-13T00:12:52.377Z,95832.38
2024-02-13T00:15:21.941Z,95821.56
2024-02-13T00:17:49.487Z,95841.59
2024-02-13T00:20:16.558Z,95835.69
2024-02-13T00:22:43.450Z,95837.28
2024-02-13T00:25:11.071Z,95841.69
2024-02-13T00:27:37.966Z,95831.66
2024-02-13T00:30:06.187Z,95845.81
2024-02-13T00:32:33.854Z,95842.44
2024-02-13T00:35:00.990Z,95855.81
2024-02-13T00:37:27.872Z,95834.34
2024-02-13T00:39:55.756Z,95842.44
2024-02-13T00:42:22.623Z,95838.16
2024-02-13T00:44:51.044Z,95844.34
2024-02-13T00:47:19.722Z,95842.75
2024-02-13T00:49:46.784Z,95843.38
2024-02-13T00:52:13.746Z,95850.66
2024-02-13T00:54:40.480Z,95854.75
2024-02-13T00:57:07.304Z,95852.38
2024-02-13T00:59:34.131Z,95848.56
2024-02-13T01:02:01.114Z,95836.69
2024-02-13T01:04:28.370Z,95840.75
2024-02-13T01:06:57.108Z,95846.34
2024-02-13T01:09:24.503Z,95844.16
2024-02-13T01:11:51.246Z,95856.25
2024-02-13T01:14:19.101Z,95851.66
2024-02-13T01:16:46.276Z,95838.91
2024-02-13T01:19:14.230Z,95844.09
2024-02-13T01:21:41.217Z,95856.78
2024-02-13T01:24:08.298Z,95830.66
2024-02-13T01:26:34.973Z,95851.50
2024-02-13T01:29:01.748Z,95858.91
2024-02-13T01:31:28.487Z,95852.81
2024-02-13T01:33:55.231Z,95852.25
2024-02-13T01:36:21.961Z,95838.28
2024-02-13T01:38:49.864Z,95846.84
2024-02-13T01:41:16.826Z,95856.34
2024-02-13T01:43:43.738Z,95868.41
2024-02-13T01:46:12.561Z,95858.84
2024-02-13T01:48:40.533Z,95859.06
2024-02-13T01:51:08.368Z,95872.94
2024-02-13T01:53:36.453Z,95872.53
2024-02-13T01:56:04.205Z,95873.00
2024-02-13T01:58:32.169Z,95880.63
2024-02-13T02:01:02.878Z,95874.72
2024-02-13T02:03:33.590Z,95876.63
2024-02-13T02:06:01.211Z,95875.03
2024-02-13T02:08:28.577Z,95874.72
2024-02-13T02:10:59.145Z,95874.03
2024-02-13T02:13:28.319Z,95871.22
2024-02-13T02:15:55.867Z,95881.41
2024-02-13T02:18:23.440Z,95863.06
2024-02-13T02:20:50.445Z,95878.19
2024-02-13T02:23:20.460Z,95886.78
2024-02-13T02:25:48.200Z,95873.53
2024-02-13T02:28:19.231Z,95878.00
2024-02-13T02:30:47.058Z,95886.59
2024-02-13T02:33:15.002Z,95877.22
2024-02-13T02:35:42.970Z,95888.97
2024-02-13T02:38:15.221Z,95878.31
2024-02-13T02:40:42.835Z,95878.31
2024-02-13T02:43:09.536Z,95873.03
2024-02-13T02:45:36.315Z,95884.19
2024-02-13T02:48:03.619Z,95887.50
2024-02-13T02:50:30.652Z,95896.66
2024-02-13T02:52:57.479Z,95900.97
2024-02-13T02:55:24.557Z,95902.25
2024-02-13T02:57:54.735Z,95904.66
2024-02-13T03:00:22.608Z,95914.94
2024-02-13T03:02:49.942Z,95918.84
2024-02-13T03:05:19.773Z,95911.56
2024-02-13T03:07:47.459Z,95919.44
2024-02-13T03:10:14.996Z,95922.13
2024-02-13T03:12:42.200Z,95925.72
2024-02-13T03:15:09.583Z,95926.00
2024-02-13T03:17:39.181Z,95932.09
2024-02-13T03:20:11.466Z,95916.31
2024-02-13T03:22:39.201Z,95920.81
2024-02-13T03:25:09.280Z,95923.81
2024-02-13T03:27:36.657Z,95947.16
2024-02-13T03:30:04.888Z,95929.47
2024-02-13T03:32:31.754Z,95940.19
2024-02-13T03:34:58.626Z,95943.66
2024-02-13T03:37:25.612Z,95946.06
2024-02-13T03:39:52.310Z,95927.50
2024-02-13T03:42:20.005Z,95943.78
2024-02-13T03:44:47.032Z,95944.38
2024-02-13T03:47:14.117Z,95947.34
2024-02-13T03:49:41.812Z,95956.41
2024-02-13T03:52:11.037Z,95946.06
2024-02-13T03:54:37.917Z,95956.63
2024-02-13T03:57:05.356Z,95974.59
2024-02-13T03:59:32.245Z,95974.59
2024-02-13T04:01:59.931Z,95962.84
2024-02-13T04:04:26.733Z,95976.50
2024-02-13T04:06:54.024Z,95969.41
2024-02-13T04:09:20.906Z,95973.41
2024-02-13T04:11:47.817Z,95970.78
2024-02-13T04:14:14.918Z,95966.41
2024-02-13T04:16:45.386Z,95986.53
2024-02-13T04:19:13.264Z,95989.53
2024-02-13T04:21:40.397Z,95984.72
2024-02-13T04:24:08.663Z,95989.00
2024-02-13T04:26:44.746Z,95985.63
2024-02-13T04:29:11.643Z,95987.78
2024-02-13T04:31:39.441Z,95985.09
2024-02-13T04:34:08.002Z,95993.47
2024-02-13T04:36:38.758Z,95994.06
2024-02-13T04:39:07.339Z,95990.06
2024-02-13T04:41:34.393Z,95998.94
2024-02-13T04:44:01.116Z,96005.94
2024-02-13T04:46:27.784Z,96007.09
2024-02-13T04:48:55.189Z,95992.72
2024-02-13T04:51:23.500Z,96022.38
2024-02-13T04:53:50.244Z,96015.19
2024-02-13T04:56:17.360Z,96007.41
2024-02-13T04:58:45.166Z,96013.50
2024-02-13T05:01:14.782Z,96017.56
2024-02-13T05:04:04.500Z,96022.53
2024-02-13T05:06:49.925Z,96024.00
2024-02-13T05:09:16.912Z,96027.50
2024-02-13T05:11:43.792Z,96031.00
2024-02-13T05:14:10.727Z,96039.66
2024-02-13T05:16:42.774Z,96038.53
2024-02-13T05:19:09.902Z,96040.81
2024-02-13T05:21:37.145Z,96050.41
2024-02-13T05:24:04.866Z,96047.19
2024-02-13T05:26:32.599Z,96056.22
2024-02-13T05:29:00.101Z,96053.59
2024-02-13T05:31:27.036Z,96056.00
2024-02-13T05:33:54.146Z,96071.28
2024-02-13T05:36:21.079Z,96059.72
2024-02-13T05:38:49.561Z,96062.09
2024-02-13T05:41:19.561Z,96074.97
2024-02-13T05:43:46.430Z,96069.59
2024-02-13T05:46:14.566Z,96076.66
2024-02-13T05:48:43.669Z,96084.16
2024-02-13T05:51:12.768Z,96085.47
2024-02-13T05:53:44.190Z,96086.75
2024-02-13T05:56:23.361Z,96100.88
2024-02-13T05:58:56.717Z,96089.81
2024-02-13T06:01:23.962Z,96101.31
2024-02-13T06:03:51.556Z,96092.13
2024-02-13T06:06:18.632Z,96087.25
2024-02-13T06:08:46.311Z,96109.34
2024-02-13T06:11:13.101Z,96121.97
2024-02-13T06:13:42.509Z,96106.28
2024-02-13T06:16:09.373Z,96118.38
2024-02-13T06:18:36.306Z,96124.03
2024-02-13T06:21:03.408Z,96125.94
2024-02-13T06:23:31.205Z,96127.94
2024-02-13T06:25:59.047Z,96132.44
2024-02-13T06:28:25.925Z,96137.22
2024-02-13T06:30:52.677Z,96131.84
2024-02-13T06:33:19.568Z,96142.84
2024-02-13T06:35:46.631Z,96135.63
2024-02-13T06:38:13.387Z,96133.75
2024-02-13T06:40:40.109Z,96143.31
2024-02-13T06:43:06.889Z,96141.44
2024-02-13T06:45:33.581Z,96148.50
2024-02-13T06:48:00.528Z,96152.81
2024-02-13T06:50:27.458Z,96153.31
2024-02-13T06:52:56.943Z,96149.28
2024-02-13T06:55:24.279Z,96152.72
2024-02-13T06:57:51.154Z,96157.81
2024-02-13T07:00:18.440Z,96158.69
2024-02-13T07:02:45.328Z,96162.69
2024-02-13T07:05:12.823Z,96168.31
2024-02-13T07:07:46.727Z,96162.91
2024-02-13T07:10:17.177Z,96168.59
2024-02-13T07:12:44.788Z,96169.41
2024-02-13T07:15:11.780Z,96169.31
2024-02-13T07:17:48.797Z,96172.31
2024-02-13T07:20:24.381Z,96178.28
2024-02-13T07:22:52.466Z,96172.97
2024-02-13T07:25:19.316Z,96183.16
2024-02-13T07:27:48.397Z,96161.53
2024-02-13T07:30:16.794Z,96176.97
2024-02-13T07:32:46.056Z,96180.19
2024-02-13T07:35:13.328Z,96177.50
2024-02-13T07:37:40.098Z,96191.75
2024-02-13T07:40:08.360Z,96182.34
2024-02-13T07:42:35.106Z,96187.66
2024-02-13T07:45:02.274Z,96188.47
2024-02-13T07:47:29.372Z,96185.78
2024-02-13T07:49:56.581Z,96190.28
2024-02-13T07:52:23.719Z,96195.38
2024-02-13T07:54:52.171Z,96202.28
2024-02-13T07:57:19.589Z,96193.56
2024-02-13T07:59:47.579Z,96184.91
2024-02-13T08:02:15.373Z,96203.63
2024-02-13T08:04:42.350Z,96206.81
2024-02-13T08:07:10.471Z,96194.44
2024-02-13T08:09:37.807Z,96197.06
2024-02-13T08:12:07.483Z,96207.69
2024-02-13T08:14:35.184Z,96209.69
2024-02-13T08:17:03.543Z,96213.50
2024-02-13T08:19:30.438Z,96214.19
2024-02-13T08:21:57.196Z,96217.72
2024-02-13T08:24:24.164Z,96219.31
2024-02-13T08:26:50.870Z,96224.53
2024-02-13T08:29:17.778Z,96228.81
2024-02-13T08:31:44.606Z,96232.16
2024-02-13T08:34:11.746Z,96228.56
2024-02-13T08:36:40.509Z,96235.47
2024-02-13T08:39:07.846Z,96226.56
2024-02-13T08:41:34.884Z,96237.56
2024-02-13T08:44:01.863Z,96242.66
2024-02-13T08:46:28.684Z,96243.97
2024-02-13T08:48:56.162Z,96239.38
2024-02-13T08:51:35.603Z,96239.75
2024-02-13T08:54:05.218Z,96234.75
2024-02-13T08:56:32.498Z,96249.16
2024-02-13T08:59:00.416Z,96253.97
2024-02-13T09:01:27.274Z,96246.75
2024-02-13T09:03:54.110Z,96239.97
2024-02-13T09:06:21.581Z,96257.69
2024-02-13T09:08:48.920Z,96258.97
2024-02-13T09:11:16.106Z,96262.97
2024-02-13T09:13:43.752Z,96253.78
2024-02-13T09:16:13.558Z,96263.69
2024-02-13T09:18:41.987Z,96262.59
2024-02-13T09:21:11.575Z,96268.97
2024-02-13T09:23:38.538Z,96262.28
2024-02-13T09:26:05.818Z,96268.59
2024-02-13T09:28:32.971Z,96264.91
2024-02-13T09:30:59.982Z,96258.19
2024-02-13T09:33:27.755Z,96271.19
2024-02-13T09:35:55.429Z,96246.28
2024-02-13T09:38:23.379Z,96276.59
2024-02-13T09:40:51.613Z,96273.41
2024-02-13T09:43:19.529Z,96283.81
2024-02-13T09:45:46.795Z,96282.41
2024-02-13T09:48:25.035Z,96280.19
2024-02-13T09:50:54.408Z,96280.19
2024-02-13T09:53:29.206Z,96281.31
2024-02-13T09:55:59.899Z,96287.31
2024-02-13T09:58:27.854Z,96283.59
2024-02-13T10:00:58.682Z,96285.72
2024-02-13T10:03:28.148Z,96278.19
2024-02-13T10:05:55.605Z,96285.00
2024-02-13T10:08:28.713Z,96285.19
2024-02-13T10:11:03.391Z,96276.19
2024-02-13T10:13:34.051Z,96285.81
2024-02-13T10:16:01.697Z,96287.69
2024-02-13T10:18:29.208Z,96285.81
2024-02-13T10:20:56.737Z,96288.19
2024-02-13T10:23:30.824Z,96289.00
2024-02-13T10:25:57.565Z,96296.09
2024-02-13T10:28:26.218Z,96294.00
2024-02-13T10:30:54.145Z,96285.47
2024-02-13T10:33:21.115Z,96278.69
2024-02-13T10:35:54.065Z,96289.56
2024-02-13T10:38:26.633Z,96275.56
2024-02-13T10:40:56.365Z,96281.28
2024-02-13T10:43:25.478Z,96287.16
2024-02-13T10:45:59.048Z,96272.38
2024-02-13T10:48:44.736Z,96292.75
2024-02-13T10:51:18.884Z,96283.38
2024-02-13T10:53:51.034Z,96295.97
2024-02-13T10:56:19.162Z,96292.16
2024-02-13T10:58:48.001Z,96301.00
2024-02-13T11:01:19.866Z,96294.47
2024-02-13T11:03:50.043Z,96295.38
2024-02-13T11:06:17.131Z,96309.38
2024-02-13T11:08:44.743Z,96286.78
2024-02-13T11:11:17.112Z,96296.19
2024-02-13T11:13:44.641Z,96297.66
2024-02-13T11:16:12.137Z,96311.06
2024-02-13T11:19:05.123Z,96305.25
2024-02-13T11:21:31.851Z,96306.94
2024-02-13T11:24:00.111Z,96310.75
2024-02-13T11:26:34.483Z,96305.94
2024-02-13T11:29:22.794Z,96304.81
2024-02-13T11:31:59.886Z,96304.88
2024-02-13T11:34:43.193Z,96304.59
2024-02-13T11:37:22.182Z,96294.34
2024-02-13T11:39:49.367Z,96304.03
2024-02-13T11:42:19.447Z,96309.94
2024-02-13T11:44:50.642Z,96317.72
2024-02-13T11:47:21.693Z,96305.44
2024-02-13T11:49:51.032Z,96309.06
2024-02-13T11:52:19.131Z,96313.13
2024-02-13T11:54:45.980Z,96307.25
2024-02-13T11:57:13.437Z,96311.06
2024-02-13T11:59:42.350Z,96305.72
2024-02-13T12:02:15.219Z,96313.59
2024-02-13T12:04:44.282Z,96314.59
2024-02-13T12:07:14.525Z,96308.94
2024-02-13T12:09:42.687Z,96319.34
2024-02-13T12:12:15.214Z,96322.63
2024-02-13T12:14:44.573Z,96310.63
2024-02-13T12:17:13.133Z,96324.00
2024-02-13T12:19:43.721Z,96325.59
2024-02-13T12:22:12.308Z,96330.78
2024-02-13T12:24:43.037Z,96319.56
2024-02-13T12:27:13.900Z,96341.09
2024-02-13T12:29:44.483Z,96339.78
2024-02-13T12:32:18.777Z,96328.28
2024-02-13T12:34:52.033Z,96340.56
2024-02-13T12:37:21.602Z,96345.50
2024-02-13T12:39:48.933Z,96339.03
2024-02-13T12:42:18.450Z,96347.94
2024-02-13T12:44:48.499Z,96344.50
2024-02-13T12:47:15.806Z,96352.44
2024-02-13T12:49:44.726Z,96344.44
2024-02-13T12:52:23.950Z,96361.47
2024-02-13T12:54:52.938Z,96360.53
2024-02-13T12:57:20.750Z,96366.94
2024-02-13T12:59:48.563Z,96359.97
2024-02-13T13:02:15.674Z,96364.84
2024-02-13T13:04:42.883Z,96367.84
2024-02-13T13:07:10.657Z,96372.94
2024-02-13T13:09:38.990Z,96370.59
2024-02-13T13:12:07.676Z,96379.50
2024-02-13T13:14:36.023Z,96385.38
2024-02-13T13:17:02.790Z,96393.56
2024-02-13T13:19:31.064Z,96388.81
2024-02-13T13:21:59.297Z,96399.38
2024-02-13T13:24:26.089Z,96401.13
2024-02-13T13:26:53.963Z,96404.13
2024-02-13T13:29:21.078Z,96410.63
2024-02-13T13:31:50.142Z,96410.91
2024-02-13T13:34:21.610Z,96419.56
2024-02-13T13:36:50.999Z,96421.97
2024-02-13T13:39:18.542Z,96432.03
2024-02-13T13:41:45.780Z,96431.56
2024-02-13T13:44:14.709Z,96431.91
2024-02-13T13:46:42.332Z,96435.47
2024-02-13T13:49:10.766Z,96438.63
2024-02-13T13:51:40.402Z,96440.00
2024-02-13T13:54:07.526Z,96449.66
2024-02-13T13:56:34.505Z,96433.34
2024-02-13T13:59:01.256Z,96434.13
2024-02-13T14:01:28.136Z,96452.69
2024-02-13T14:03:57.094Z,96450.31
2024-02-13T14:06:24.286Z,96464.28
2024-02-13T14:08:51.168Z,96464.28
2024-02-13T14:11:18.671Z,96456.03
2024-02-13T14:13:47.341Z,96452.94
2024-02-13T14:16:15.907Z,96469.78
2024-02-13T14:18:43.512Z,96462.66
2024-02-13T14:21:10.575Z,96476.63
2024-02-13T14:23:38.342Z,96477.16
2024-02-13T14:26:05.432Z,96465.69
2024-02-13T14:28:32.235Z,96478.25
2024-02-13T14:30:58.996Z,96479.56
2024-02-13T14:33:26.128Z,96494.91
2024-02-13T14:35:53.686Z,96486.66
2024-02-13T14:38:20.648Z,96497.13
2024-02-13T14:40:47.579Z,96490.41
2024-02-13T14:43:16.521Z,96486.94
2024-02-13T14:45:45.037Z,96502.81
2024-02-13T14:48:15.004Z,96498.88
2024-02-13T14:50:42.490Z,96509.16
2024-02-13T14:53:10.249Z,96507.56
2024-02-13T14:55:40.379Z,96513.47
2024-02-13T14:58:15.220Z,96516.69
2024-02-13T15:00:54.449Z,96512.22
2024-02-13T15:03:24.659Z,96509.22
2024-02-13T15:05:52.020Z,96514.53
2024-02-13T15:08:20.434Z,96518.03
2024-02-13T15:10:48.351Z,96526.09
2024-02-13T15:13:17.080Z,96516.56
2024-02-13T15:15:49.834Z,96516.59
2024-02-13T15:18:17.138Z,96539.13
2024-02-13T15:20:44.695Z,96534.84
2024-02-13T15:23:14.256Z,96539.44
2024-02-13T15:25:41.636Z,96545.59
2024-02-13T15:28:08.504Z,96556.38
2024-02-13T15:30:38.793Z,96555.06
2024-02-13T15:33:07.089Z,96542.47
2024-02-13T15:35:43.250Z,96566.09
2024-02-13T15:38:29.662Z,96568.53
2024-02-13T15:41:24.331Z,96565.34
2024-02-13T15:44:09.922Z,96567.59
2024-02-13T15:47:05.198Z,96553.13
2024-02-13T15:49:36.453Z,96586.13
2024-02-13T15:52:15.698Z,96566.31
2024-02-13T15:54:43.375Z,96606.59
2024-02-13T15:57:14.071Z,96599.34
2024-02-13T15:59:44.757Z,96550.81
2024-02-13T16:02:14.005Z,96620.03
2024-02-13T16:04:46.955Z,96624.06
2024-02-13T16:07:18.148Z,96615.16
2024-02-13T16:09:49.707Z,96626.22
2024-02-13T16:12:16.874Z,96624.88
2024-02-13T16:14:43.594Z,96634.84
2024-02-13T16:17:11.108Z,96634.03
2024-02-13T16:19:37.905Z,96643.97
2024-02-13T16:22:04.807Z,96640.22
2024-02-13T16:24:32.967Z,96650.69
2024-02-13T16:27:00.799Z,96634.88
2024-02-13T16:29:28.704Z,96676.50
2024-02-13T16:31:55.857Z,96678.66
2024-02-13T16:34:23.066Z,96661.47
2024-02-13T16:36:49.916Z,96671.16
2024-02-13T16:39:18.858Z,96673.31
2024-02-13T16:41:46.386Z,96681.13
2024-02-13T16:44:18.537Z,96691.84
2024-02-13T16:46:48.167Z,96689.72
2024-02-13T16:49:15.166Z,96698.56
2024-02-13T16:51:42.021Z,96687.88
2024-02-13T16:54:10.261Z,96708.03
2024-02-13T16:56:37.340Z,96717.41
2024-02-13T16:59:05.278Z,96709.66
2024-02-13T17:01:32.247Z,96719.31
2024-02-13T17:03:59.399Z,96715.81
2024-02-13T17:06:26.229Z,96718.50
2024-02-13T17:08:53.168Z,96725.47
2024-02-13T17:11:20.561Z,96718.78
2024-02-13T17:13:48.052Z,96732.47
2024-02-13T17:16:18.012Z,96720.41
2024-02-13T17:18:44.911Z,96727.38
2024-02-13T17:21:11.856Z,96737.09
2024-02-13T17:23:38.718Z,96735.75
2024-02-13T17:26:05.406Z,96737.63
2024-02-13T17:28:32.365Z,96745.69
2024-02-13T17:30:59.260Z,96749.47
2024-02-13T17:33:26.242Z,96742.25
2024-02-13T17:35:53.187Z,96759.69
2024-02-13T17:38:21.598Z,96747.63
2024-02-13T17:40:49.165Z,96757.53
2024-02-13T17:43:18.165Z,96761.06
2024-02-13T17:45:45.143Z,96763.22
2024-02-13T17:48:11.881Z,96758.63
2024-02-13T17:50:38.876Z,96763.22
2024-02-13T17:53:05.634Z,96757.84
2024-02-13T17:55:32.368Z,96775.31
2024-02-13T17:57:59.096Z,96782.81
2024-02-13T18:00:26.361Z,96776.13
2024-02-13T18:02:54.916Z,96782.56
2024-02-13T18:05:21.976Z,96787.66
2024-02-13T18:07:48.945Z,96795.19
2024-02-13T18:10:15.708Z,96795.75
2024-02-13T18:12:44.668Z,96801.94
2024-02-13T18:15:11.913Z,96797.63
2024-02-13T18:17:38.751Z,96799.78
2024-02-13T18:20:06.538Z,96790.38
2024-02-13T18:22:33.568Z,96806.78
2024-02-13T18:25:00.557Z,96806.22
2024-02-13T18:27:27.240Z,96811.59
2024-02-13T18:29:54.274Z,96820.47
2024-02-13T18:32:21.944Z,96800.84
2024-02-13T18:34:48.738Z,96816.72
2024-02-13T18:37:15.607Z,96824.25
2024-02-13T18:39:48.374Z,96837.41
2024-02-13T18:42:15.079Z,96830.44
2024-02-13T18:44:41.974Z,96839.00
2024-02-13T18:47:13.645Z,96841.16
2024-02-13T18:49:40.549Z,96844.13
2024-02-13T18:52:08.984Z,96851.38
2024-02-13T18:54:41.425Z,96857.28
2024-02-13T18:57:08.551Z,96843.28
2024-02-13T18:59:36.048Z,96847.84
2024-02-13T19:02:05.421Z,96856.44
2024-02-13T19:04:32.450Z,96858.88
2024-02-13T19:07:00.766Z,96853.19
2024-02-13T19:09:29.861Z,96863.44
2024-02-13T19:12:01.532Z,96866.91
2024-02-13T19:14:57.282Z,96839.44
2024-02-13T19:17:57.967Z,96828.13
2024-02-13T19:23:25.702Z,96795.00
2024-02-13T19:26:12.631Z,96885.19
2024-02-13T19:29:23.439Z,96837.03
2024-02-13T19:32:07.324Z,96813.28
2024-02-13T19:34:43.634Z,96828.31
2024-02-13T19:37:53.584Z,96889.44
2024-02-13T19:40:54.841Z,96827.53
2024-02-13T19:43:53.782Z,96870.09
2024-02-13T19:49:20.261Z,96877.56
2024-02-13T19:51:49.491Z,96846.84
2024-02-13T19:54:16.795Z,96844.41
2024-02-13T19:56:58.146Z,96908.53
2024-02-13T20:00:16.180Z,96867.84
2024-02-13T20:02:46.069Z,96855.72
2024-02-13T20:05:12.775Z,96913.34
2024-02-13T20:07:39.552Z,96926.53
2024-02-13T20:10:07.543Z,96935.41
2024-02-13T20:12:34.753Z,96941.56
2024-02-13T20:15:01.723Z,96934.81
2024-02-13T20:17:28.874Z,96935.34
2024-02-13T20:19:55.760Z,96933.44
2024-02-13T20:22:22.860Z,96943.41
2024-02-13T20:24:49.570Z,96934.25
2024-02-13T20:27:16.706Z,96940.16
2024-02-13T20:29:43.960Z,96960.03
2024-02-13T20:32:10.857Z,96960.81
2024-02-13T20:34:38.481Z,96946.78
2024-02-13T20:37:05.352Z,96963.75
2024-02-13T20:39:32.200Z,96968.88
2024-02-13T20:42:00.952Z,96954.53
2024-02-13T20:44:29.176Z,96965.00
2024-02-13T20:46:57.783Z,96972.78
2024-02-13T20:49:25.647Z,96968.19
2024-02-13T20:51:52.600Z,96973.28
2024-02-13T20:54:20.289Z,96963.03
2024-02-13T20:56:48.364Z,96974.38
2024-02-13T20:59:15.713Z,96984.56
2024-02-13T21:01:43.465Z,96979.97
2024-02-13T21:04:10.649Z,96987.19
2024-02-13T21:06:44.553Z,96982.31
2024-02-13T21:09:13.278Z,96989.00
2024-02-13T21:11:41.057Z,96984.72
2024-02-13T21:14:07.929Z,96973.38
2024-02-13T21:16:34.937Z,96989.31
2024-02-13T21:19:02.764Z,96991.75
2024-02-13T21:21:48.472Z,96996.81
2024-02-13T21:24:15.329Z,96984.09
2024-02-13T21:26:42.494Z,97002.13
2024-02-13T21:29:09.989Z,97002.41
2024-02-13T21:31:37.691Z,96993.72
2024-02-13T21:34:07.230Z,97001.81
2024-02-13T21:36:35.752Z,97006.66
2024-02-13T21:39:09.038Z,97011.47
2024-02-13T21:41:36.991Z,97002.31
2024-02-13T21:44:04.912Z,97002.28
2024-02-13T21:46:31.630Z,97015.72
2024-02-13T21:48:58.813Z,97003.28
2024-02-13T21:51:26.468Z,97018.13
2024-02-13T21:53:53.252Z,97011.38
2024-02-13T21:56:21.217Z,97009.16
2024-02-13T21:58:48.924Z,97020.00
2024-02-13T22:01:16.701Z,97026.97
2024-02-13T22:03:43.796Z,97005.94
2024-02-13T22:06:11.890Z,97027.53
2024-02-13T22:08:38.667Z,97020.75
2024-02-13T22:11:05.426Z,97027.75
2024-02-13T22:13:32.147Z,97042.84
2024-02-13T22:15:59.128Z,97032.50
2024-02-13T22:18:26.732Z,97047.41
2024-02-13T22:20:53.910Z,97032.28
2024-02-13T22:23:20.975Z,97034.41
2024-02-13T22:25:47.892Z,97048.69
2024-02-13T22:28:15.031Z,97028.16
2024-02-13T22:30:46.649Z,97041.94
2024-02-13T22:33:13.861Z,97043.22
2024-02-13T22:35:41.053Z,97050.50
2024-02-13T22:38:07.897Z,97045.69
2024-02-13T22:40:34.814Z,97053.72
2024-02-13T22:43:02.956Z,97058.84
2024-02-13T22:45:29.871Z,97056.91
2024-02-13T22:48:02.587Z,97050.44
2024-02-13T22:50:30.533Z,97052.81
2024-02-13T22:52:59.817Z,97067.38
2024-02-13T22:55:30.183Z,97063.31
2024-02-13T22:57:58.495Z,97061.69
2024-02-13T23:00:44.438Z,97057.91
2024-02-13T23:03:14.058Z,97073.50
2024-02-13T23:05:46.930Z,97091.53
2024-02-13T23:08:16.627Z,97060.06
2024-02-13T23:10:43.830Z,97073.00
2024-02-13T23:13:12.266Z,97081.91
2024-02-13T23:15:39.633Z,97072.72
2024-02-13T23:18:07.149Z,97089.94
2024-02-13T23:20:34.876Z,97081.88
2024-02-13T23:23:02.314Z,97083.75
2024-02-13T23:25:30.043Z,97079.94
2024-02-13T23:27:57.601Z,97092.63
2024-02-13T23:30:24.685Z,97088.66
2024-02-13T23:32:51.675Z,97076.53
2024-02-13T23:35:18.962Z,97072.50
2024-02-13T23:37:47.179Z,97088.94
2024-02-13T23:40:16.276Z,97099.13
2024-02-13T23:42:44.433Z,97087.22
2024-02-13T23:45:11.766Z,97097.16
2024-02-13T23:47:39.610Z,97076.69
2024-02-13T23:50:07.709Z,97081.28
2024-02-13T23:52:35.345Z,97094.47
2024-02-13T23:55:04.165Z,97096.03
2024-02-13T23:57:31.421Z,97105.72
2024-02-13T23:59:59.487Z,97097.63
